createdAt,value
2023-02-07T00:00:21.744Z,6.50
2023-02-07T00:02:49.076Z,5.78
2023-02-07T00:05:16.114Z,6.07
2023-02-07T00:07:42.886Z,7.35
2023-02-07T00:10:09.812Z,7.32
2023-02-07T00:12:36.536Z,4.97
2023-02-07T00:15:03.623Z,5.07
2023-02-07T00:17:30.403Z,6.07
2023-02-07T00:19:57.175Z,5.95
2023-02-07T00:22:23.903Z,5.70
2023-02-07T00:24:50.603Z,4.95
2023-02-07T00:27:17.668Z,6.50
2023-02-07T00:29:44.366Z,5.13
2023-02-07T00:32:11.221Z,4.90
2023-02-07T00:34:38.276Z,4.88
2023-02-07T00:37:05.278Z,5.85
2023-02-07T00:39:32.145Z,5.97
2023-02-07T00:41:58.853Z,6.38
2023-02-07T00:44:25.534Z,5.32
2023-02-07T00:46:52.275Z,6.05
2023-02-07T00:49:19.031Z,4.97
2023-02-07T00:51:45.960Z,6.30
2023-02-07T00:54:12.629Z,4.85
2023-02-07T00:56:39.469Z,5.03
2023-02-07T00:59:06.410Z,5.63
2023-02-07T01:01:33.251Z,5.63
2023-02-07T01:04:00.022Z,6.00
2023-02-07T01:06:27.996Z,6.80
2023-02-07T01:08:58.468Z,7.65
2023-02-07T01:11:25.144Z,5.70
2023-02-07T01:13:51.904Z,5.75
2023-02-07T01:16:29.962Z,5.50
2023-02-07T01:18:56.771Z,5.65
2023-02-07T01:21:24.849Z,5.00
2023-02-07T01:23:51.711Z,8.00
2023-02-07T01:26:18.412Z,5.70
2023-02-07T01:28:45.603Z,4.95
2023-02-07T01:31:12.922Z,6.05
2023-02-07T01:33:39.727Z,5.28
2023-02-07T01:36:11.117Z,4.55
2023-02-07T01:38:37.810Z,4.50
2023-02-07T01:41:04.734Z,4.78
2023-02-07T01:43:31.535Z,6.20
2023-02-07T01:45:58.246Z,6.00
2023-02-07T01:48:35.862Z,4.95
2023-02-07T01:51:04.835Z,4.95
2023-02-07T01:53:31.822Z,7.03
2023-02-07T01:56:01.174Z,6.30
2023-02-07T01:58:28.248Z,4.30
2023-02-07T02:00:54.914Z,5.47
2023-02-07T02:03:21.792Z,4.05
2023-02-07T02:05:48.505Z,4.78
2023-02-07T02:08:15.162Z,4.60
2023-02-07T02:10:54.629Z,6.97
2023-02-07T02:13:32.549Z,4.18
2023-02-07T02:16:20.403Z,4.43
2023-02-07T02:19:00.308Z,4.30
2023-02-07T02:21:52.550Z,4.10
2023-02-07T02:24:25.201Z,4.47
2023-02-07T02:26:56.216Z,4.57
2023-02-07T02:29:50.495Z,4.30
2023-02-07T02:32:38.824Z,4.68
2023-02-07T02:35:28.525Z,5.22
2023-02-07T02:38:13.474Z,5.43
2023-02-07T02:40:40.976Z,4.43
2023-02-07T02:43:12.917Z,4.65
2023-02-07T02:45:42.892Z,6.43
2023-02-07T02:48:10.316Z,5.32
2023-02-07T02:50:37.010Z,4.57
2023-02-07T02:53:03.763Z,4.43
2023-02-07T02:55:56.678Z,5.13
2023-02-07T02:59:01.065Z,5.03
2023-02-07T03:01:48.555Z,5.05
2023-02-07T03:04:45.005Z,4.28
2023-02-07T03:07:30.011Z,4.90
2023-02-07T03:09:59.448Z,6.28
2023-02-07T03:12:28.374Z,5.80
2023-02-07T03:15:04.483Z,6.25
2023-02-07T03:17:35.459Z,5.95
2023-02-07T03:20:07.477Z,7.75
2023-02-07T03:22:34.197Z,5.70
2023-02-07T03:25:01.463Z,5.78
2023-02-07T03:27:28.916Z,5.95
2023-02-07T03:29:59.177Z,5.82
2023-02-07T03:32:29.728Z,5.28
2023-02-07T03:35:10.612Z,5.70
2023-02-07T03:37:42.629Z,6.00
2023-02-07T03:40:10.140Z,7.60
2023-02-07T03:43:02.148Z,10.70
2023-02-07T03:45:28.866Z,9.25
2023-02-07T03:47:55.589Z,7.55
2023-02-07T03:50:22.333Z,8.25
2023-02-07T03:52:49.198Z,8.18
2023-02-07T03:55:15.991Z,10.77
2023-02-07T03:57:42.668Z,9.40
2023-02-07T04:00:10.178Z,10.10
2023-02-07T04:02:36.850Z,7.18
2023-02-07T04:05:03.571Z,9.23
2023-02-07T04:07:30.505Z,9.13
2023-02-07T04:09:57.162Z,10.73
2023-02-07T04:12:23.933Z,8.98
2023-02-07T04:14:50.606Z,9.50
2023-02-07T04:17:17.259Z,8.02
2023-02-07T04:19:43.939Z,9.85
2023-02-07T04:22:11.443Z,8.05
2023-02-07T04:24:38.179Z,7.60
2023-02-07T04:27:04.834Z,8.80
2023-02-07T04:29:31.574Z,10.43
2023-02-07T04:31:59.121Z,7.90
2023-02-07T04:34:26.149Z,8.20
2023-02-07T04:36:52.815Z,6.45
2023-02-07T04:39:19.475Z,8.05
2023-02-07T04:41:46.163Z,9.50
2023-02-07T04:44:13.017Z,6.97
2023-02-07T04:46:39.713Z,7.68
2023-02-07T04:49:06.409Z,6.18
2023-02-07T04:51:33.330Z,6.93
2023-02-07T04:54:00.117Z,8.05
2023-02-07T04:56:27.026Z,8.07
2023-02-07T04:58:53.810Z,8.32
2023-02-07T05:01:20.532Z,6.97
2023-02-07T05:03:47.235Z,7.05
2023-02-07T05:06:13.902Z,8.02
2023-02-07T05:08:40.621Z,8.10
2023-02-07T05:11:07.315Z,8.80
2023-02-07T05:13:33.998Z,8.75
2023-02-07T05:16:03.601Z,7.45
2023-02-07T05:18:30.418Z,10.63
2023-02-07T05:20:57.896Z,8.90
2023-02-07T05:23:25.016Z,9.57
2023-02-07T05:25:52.321Z,8.02
2023-02-07T05:28:19.121Z,11.32
2023-02-07T05:30:46.058Z,9.27
2023-02-07T05:33:12.795Z,11.02
2023-02-07T05:35:44.329Z,10.52
2023-02-07T05:38:12.805Z,11.63
2023-02-07T05:40:39.870Z,10.48
2023-02-07T05:43:06.784Z,10.07
2023-02-07T05:45:33.903Z,10.13
2023-02-07T05:48:00.648Z,13.27
2023-02-07T05:50:27.366Z,13.02
2023-02-07T05:52:54.050Z,11.90
2023-02-07T05:55:20.756Z,11.02
2023-02-07T05:57:47.453Z,12.02
2023-02-07T06:00:15.932Z,10.10
2023-02-07T06:02:42.744Z,10.20
2023-02-07T06:05:10.964Z,10.65
2023-02-07T06:07:37.662Z,9.85
2023-02-07T06:10:05.396Z,9.82
2023-02-07T06:12:32.969Z,10.60
2023-02-07T06:14:59.801Z,9.15
2023-02-07T06:17:26.486Z,9.35
2023-02-07T06:19:53.749Z,8.00
2023-02-07T06:22:20.536Z,8.15
2023-02-07T06:24:47.221Z,8.60
2023-02-07T06:27:13.928Z,7.70
2023-02-07T06:29:40.596Z,8.80
2023-02-07T06:32:07.369Z,7.70
2023-02-07T06:34:34.059Z,9.60
2023-02-07T06:37:00.754Z,10.98
2023-02-07T06:39:27.485Z,7.20
2023-02-07T06:41:54.158Z,7.15
2023-02-07T06:44:20.875Z,9.73
2023-02-07T06:46:47.599Z,8.10
2023-02-07T06:49:14.445Z,9.93
2023-02-07T06:51:41.521Z,8.65
2023-02-07T06:54:09.961Z,7.38
2023-02-07T06:56:37.494Z,6.97
2023-02-07T06:59:04.350Z,8.02
2023-02-07T07:01:31.373Z,7.53
2023-02-07T07:03:58.162Z,8.32
2023-02-07T07:06:24.908Z,8.75
2023-02-07T07:08:51.787Z,8.55
2023-02-07T07:11:18.996Z,8.95
2023-02-07T07:13:46.184Z,9.05
2023-02-07T07:16:13.037Z,7.97
2023-02-07T07:18:39.820Z,8.45
2023-02-07T07:21:07.583Z,8.57
2023-02-07T07:23:34.313Z,9.32
2023-02-07T07:26:01.060Z,8.82
2023-02-07T07:28:27.752Z,9.32
2023-02-07T07:30:54.704Z,10.48
2023-02-07T07:33:21.385Z,8.75
2023-02-07T07:35:48.121Z,11.27
2023-02-07T07:38:14.967Z,10.40
2023-02-07T07:40:41.626Z,7.88
2023-02-07T07:43:08.499Z,6.20
2023-02-07T07:45:35.296Z,8.48
2023-02-07T07:48:02.052Z,6.95
2023-02-07T07:50:28.830Z,6.38
2023-02-07T07:52:55.559Z,6.40
2023-02-07T07:55:22.977Z,6.97
2023-02-07T07:57:49.808Z,6.63
2023-02-07T08:00:16.785Z,7.30
2023-02-07T08:02:43.513Z,5.97
2023-02-07T08:05:13.165Z,7.22
2023-02-07T08:07:40.367Z,8.65
2023-02-07T08:10:07.266Z,7.97
2023-02-07T08:12:35.040Z,9.43
2023-02-07T08:15:01.821Z,8.40
2023-02-07T08:17:29.129Z,11.05
2023-02-07T08:19:55.857Z,10.93
2023-02-07T08:22:22.796Z,9.50
2023-02-07T08:24:49.498Z,9.77
2023-02-07T08:27:16.178Z,8.00
2023-02-07T08:29:42.969Z,7.53
2023-02-07T08:32:09.791Z,8.13
2023-02-07T08:34:37.635Z,7.97
2023-02-07T08:37:08.494Z,8.10
2023-02-07T08:39:37.906Z,6.88
2023-02-07T08:42:10.575Z,6.75
2023-02-07T08:44:37.444Z,8.80
2023-02-07T08:47:04.534Z,7.15
2023-02-07T08:49:31.358Z,9.68
2023-02-07T08:51:58.186Z,8.30
2023-02-07T08:54:24.927Z,8.90
2023-02-07T08:56:51.690Z,10.55
2023-02-07T08:59:18.475Z,9.23
2023-02-07T09:01:45.312Z,11.23
2023-02-07T09:04:12.078Z,9.30
2023-02-07T09:06:39.090Z,8.63
2023-02-07T09:09:06.508Z,10.82
2023-02-07T09:11:33.448Z,10.65
2023-02-07T09:14:00.151Z,10.38
2023-02-07T09:16:26.919Z,10.55
2023-02-07T09:18:53.698Z,10.10
2023-02-07T09:21:20.504Z,11.52
2023-02-07T09:23:47.257Z,9.60
2023-02-07T09:26:21.481Z,10.93
2023-02-07T09:28:48.418Z,9.82
2023-02-07T09:31:15.432Z,11.85
2023-02-07T09:33:42.439Z,11.25
2023-02-07T09:36:20.345Z,10.05
2023-02-07T09:38:47.358Z,11.20
2023-02-07T09:41:19.451Z,12.50
2023-02-07T09:44:27.978Z,10.73
2023-02-07T09:47:15.805Z,9.93
2023-02-07T09:50:00.409Z,10.55
2023-02-07T09:52:49.714Z,9.82
2023-02-07T09:55:25.146Z,11.75
2023-02-07T09:58:05.710Z,13.00
2023-02-07T10:00:44.873Z,11.13
2023-02-07T10:03:14.109Z,12.68
2023-02-07T10:05:43.661Z,12.15
2023-02-07T10:08:13.622Z,12.05
2023-02-07T10:10:55.318Z,12.18
2023-02-07T10:13:26.158Z,12.70
2023-02-07T10:16:21.838Z,15.57
2023-02-07T10:19:11.877Z,14.18
2023-02-07T10:22:10.450Z,13.68
2023-02-07T10:28:22.341Z,16.00
2023-02-07T10:31:15.249Z,13.63
2023-02-07T10:34:25.754Z,15.20
2023-02-07T10:36:53.352Z,17.08
2023-02-07T10:39:34.717Z,13.13
2023-02-07T10:45:32.523Z,16.65
2023-02-07T10:47:59.258Z,14.50
2023-02-07T10:50:30.128Z,17.77
2023-02-07T10:52:58.206Z,18.95
2023-02-07T10:55:42.975Z,15.05
2023-02-07T10:58:23.858Z,18.08
2023-02-07T11:00:54.542Z,15.40
2023-02-07T11:03:22.526Z,16.88
2023-02-07T11:06:04.176Z,16.88
2023-02-07T11:08:32.704Z,14.38
2023-02-07T11:11:00.648Z,15.40
2023-02-07T11:13:29.538Z,14.10
2023-02-07T11:16:01.575Z,18.20
2023-02-07T11:18:28.307Z,15.55
2023-02-07T11:20:56.374Z,16.08
2023-02-07T11:23:23.257Z,15.57
2023-02-07T11:25:50.190Z,14.27
2023-02-07T11:28:30.031Z,17.17
2023-02-07T11:31:03.611Z,14.88
2023-02-07T11:33:32.872Z,12.55
2023-02-07T11:36:06.803Z,15.02
2023-02-07T11:38:40.762Z,12.80
2023-02-07T11:41:21.907Z,12.77
2023-02-07T11:43:53.366Z,13.23
2023-02-07T11:46:22.970Z,12.32
2023-02-07T11:48:50.094Z,12.43
2023-02-07T11:51:17.459Z,10.60
2023-02-07T11:54:16.442Z,12.35
2023-02-07T11:56:43.847Z,17.48
2023-02-07T11:59:37.005Z,11.52
2023-02-07T12:02:16.417Z,10.50
2023-02-07T12:04:43.502Z,9.82
2023-02-07T12:07:27.441Z,9.32
2023-02-07T12:09:59.441Z,9.20
2023-02-07T12:12:46.094Z,9.38
2023-02-07T12:15:46.570Z,8.70
2023-02-07T12:18:27.673Z,8.95
2023-02-07T12:21:06.431Z,9.20
2023-02-07T12:23:48.073Z,9.20
2023-02-07T12:26:31.905Z,8.25
2023-02-07T12:29:17.338Z,13.18
2023-02-07T12:31:47.351Z,10.60
2023-02-07T12:34:54.750Z,12.20
2023-02-07T12:37:49.233Z,11.45
2023-02-07T12:40:31.124Z,13.07
2023-02-07T12:43:11.270Z,10.63
2023-02-07T12:46:02.085Z,10.27
2023-02-07T12:48:50.175Z,12.00
2023-02-07T12:51:44.830Z,12.88
2023-02-07T12:56:53.659Z,10.45
2023-02-07T12:59:33.563Z,9.35
2023-02-07T13:02:23.323Z,10.63
2023-02-07T13:04:59.024Z,6.78
2023-02-07T13:07:45.775Z,5.18
2023-02-07T13:10:23.560Z,4.95
2023-02-07T13:13:06.256Z,5.70
2023-02-07T13:15:48.472Z,4.10
2023-02-07T13:18:30.270Z,7.10
2023-02-07T13:21:09.219Z,5.05
2023-02-07T13:23:38.472Z,4.88
2023-02-07T13:26:09.235Z,6.10
2023-02-07T13:28:56.394Z,6.20
2023-02-07T13:31:45.332Z,5.25
2023-02-07T13:34:26.018Z,4.82
2023-02-07T13:36:53.138Z,5.22
2023-02-07T13:39:41.547Z,5.40
2023-02-07T13:42:30.194Z,5.10
2023-02-07T13:45:00.981Z,5.05
2023-02-07T13:47:40.864Z,5.03
2023-02-07T13:50:15.432Z,5.05
2023-02-07T13:53:03.834Z,4.43
2023-02-07T13:55:34.566Z,6.07
2023-02-07T13:58:20.012Z,5.43
2023-02-07T14:00:59.825Z,4.72
2023-02-07T14:03:31.283Z,5.25
2023-02-07T14:06:21.267Z,6.97
2023-02-07T14:08:57.603Z,7.57
2023-02-07T14:11:44.073Z,6.20
2023-02-07T14:14:34.270Z,4.93
2023-02-07T14:17:27.104Z,5.43
2023-02-07T14:20:04.316Z,6.03
2023-02-07T14:22:31.262Z,5.45
2023-02-07T14:25:07.126Z,5.18
2023-02-07T14:27:52.229Z,6.53
2023-02-07T14:30:27.646Z,5.55
2023-02-07T14:33:11.755Z,5.90
2023-02-07T14:35:59.885Z,6.97
2023-02-07T14:38:39.320Z,5.93
2023-02-07T14:41:13.208Z,6.30
2023-02-07T14:43:44.926Z,6.45
2023-02-07T14:46:26.166Z,6.18
2023-02-07T14:48:54.480Z,5.10
2023-02-07T14:51:28.077Z,5.70
2023-02-07T14:54:07.029Z,5.03
2023-02-07T14:57:06.086Z,6.28
2023-02-07T14:59:43.762Z,7.47
2023-02-07T15:02:35.635Z,5.63
2023-02-07T15:05:19.351Z,5.25
2023-02-07T15:07:47.221Z,7.45
2023-02-07T15:10:23.974Z,6.07
2023-02-07T15:12:52.901Z,5.38
2023-02-07T15:15:25.540Z,6.32
2023-02-07T15:17:52.934Z,5.82
2023-02-07T15:20:21.434Z,5.93
2023-02-07T15:22:49.801Z,6.05
2023-02-07T15:25:16.638Z,5.95
2023-02-07T15:27:43.378Z,5.35
2023-02-07T15:30:18.529Z,5.38
2023-02-07T15:32:48.728Z,9.82
2023-02-07T15:35:29.133Z,11.15
2023-02-07T15:38:12.768Z,11.95
2023-02-07T15:40:40.064Z,12.80
2023-02-07T15:43:24.029Z,17.20
2023-02-07T15:46:09.005Z,13.88
2023-02-07T15:48:49.640Z,13.55
2023-02-07T15:51:18.574Z,15.80
2023-02-07T15:53:49.119Z,13.60
2023-02-07T15:56:15.914Z,13.57
2023-02-07T15:58:42.768Z,13.23
2023-02-07T16:01:35.781Z,13.73
2023-02-07T16:04:02.752Z,13.65
2023-02-07T16:06:30.391Z,14.38
2023-02-07T16:09:01.332Z,12.18
2023-02-07T16:11:28.043Z,14.70
2023-02-07T16:13:55.603Z,13.18
2023-02-07T16:16:25.557Z,14.93
2023-02-07T16:18:52.517Z,13.70
2023-02-07T16:21:23.870Z,13.80
2023-02-07T16:23:53.141Z,13.38
2023-02-07T16:26:24.596Z,14.18
2023-02-07T16:28:51.390Z,12.23
2023-02-07T16:31:18.238Z,12.68
2023-02-07T16:33:45.166Z,11.75
2023-02-07T16:36:18.425Z,12.35
2023-02-07T16:38:45.234Z,11.45
2023-02-07T16:41:22.162Z,11.93
2023-02-07T16:43:48.952Z,10.98
2023-02-07T16:46:15.742Z,11.77
2023-02-07T16:48:42.606Z,11.52
2023-02-07T16:51:09.334Z,11.02
2023-02-07T16:53:36.214Z,12.50
2023-02-07T16:56:02.977Z,12.85
2023-02-07T16:58:30.954Z,12.57
2023-02-07T17:00:58.015Z,13.43
2023-02-07T17:03:24.759Z,15.13
2023-02-07T17:05:51.562Z,14.63
2023-02-07T17:08:22.811Z,14.48
2023-02-07T17:11:00.475Z,13.18
2023-02-07T17:13:27.259Z,12.55
2023-02-07T17:15:54.222Z,13.80
2023-02-07T17:18:21.135Z,13.80
2023-02-07T17:20:47.889Z,11.35
2023-02-07T17:23:14.781Z,13.40
2023-02-07T17:25:41.625Z,12.65
2023-02-07T17:28:11.268Z,12.73
2023-02-07T17:30:39.546Z,11.57
2023-02-07T17:33:07.206Z,14.32
2023-02-07T17:35:34.334Z,10.50
2023-02-07T17:38:01.134Z,10.85
2023-02-07T17:40:35.987Z,10.90
2023-02-07T17:43:02.938Z,11.02
2023-02-07T17:45:29.829Z,10.55
2023-02-07T17:47:56.930Z,10.52
2023-02-07T17:50:27.436Z,10.93
2023-02-07T17:52:54.156Z,12.05
2023-02-07T17:55:20.904Z,9.95
2023-02-07T17:57:47.637Z,11.23
2023-02-07T18:00:18.853Z,11.75
2023-02-07T18:02:47.368Z,12.75
2023-02-07T18:05:14.726Z,11.43
2023-02-07T18:07:41.593Z,10.27
2023-02-07T18:10:10.002Z,11.30
2023-02-07T18:12:37.280Z,10.98
2023-02-07T18:15:04.886Z,10.95
2023-02-07T18:17:31.678Z,10.32
2023-02-07T18:19:58.397Z,10.82
2023-02-07T18:22:25.095Z,12.30
2023-02-07T18:24:51.920Z,12.13
2023-02-07T18:27:18.728Z,11.32
2023-02-07T18:29:45.710Z,12.80
2023-02-07T18:32:12.504Z,11.70
2023-02-07T18:34:40.103Z,12.30
2023-02-07T18:37:07.171Z,12.55
2023-02-07T18:39:33.884Z,11.35
2023-02-07T18:42:01.164Z,13.32
2023-02-07T18:44:27.904Z,13.13
2023-02-07T18:46:54.743Z,13.95
2023-02-07T18:49:23.151Z,12.45
2023-02-07T18:51:50.103Z,13.10
2023-02-07T18:54:16.987Z,13.05
2023-02-07T18:56:47.536Z,11.35
2023-02-07T18:59:17.295Z,12.00
2023-02-07T19:01:48.075Z,13.43
2023-02-07T19:04:15.841Z,11.70
2023-02-07T19:06:42.973Z,13.30
2023-02-07T19:09:09.869Z,13.73
2023-02-07T19:11:37.790Z,14.63
2023-02-07T19:14:04.544Z,12.23
2023-02-07T19:16:31.347Z,13.48
2023-02-07T19:18:59.330Z,15.10
2023-02-07T19:21:28.726Z,12.73
2023-02-07T19:23:58.672Z,13.68
2023-02-07T19:26:25.684Z,14.15
2023-02-07T19:28:54.950Z,13.60
2023-02-07T19:31:21.805Z,13.93
2023-02-07T19:33:49.050Z,12.43
2023-02-07T19:36:16.596Z,15.13
2023-02-07T19:38:43.274Z,13.88
2023-02-07T19:41:10.158Z,13.45
2023-02-07T19:43:37.619Z,13.88
2023-02-07T19:46:04.605Z,15.00
2023-02-07T19:48:31.364Z,14.80
2023-02-07T19:51:02.614Z,13.77
2023-02-07T19:53:29.588Z,15.43
2023-02-07T19:56:03.631Z,15.52
2023-02-07T20:00:57.647Z,15.27
2023-02-07T20:03:25.019Z,14.52
2023-02-07T20:05:53.074Z,16.83
2023-02-07T20:08:20.525Z,14.50
2023-02-07T20:10:47.808Z,14.93
2023-02-07T20:13:14.869Z,14.55
2023-02-07T20:15:42.678Z,15.05
2023-02-07T20:18:09.646Z,16.75
2023-02-07T20:20:40.655Z,16.02
2023-02-07T20:23:09.702Z,14.52
2023-02-07T20:25:39.474Z,15.23
2023-02-07T20:28:07.033Z,14.63
2023-02-07T20:30:34.489Z,16.80
2023-02-07T20:33:01.363Z,16.42
2023-02-07T20:35:28.089Z,15.20
2023-02-07T20:37:54.953Z,15.73
2023-02-07T20:40:21.750Z,14.82
2023-02-07T20:42:48.454Z,15.23
2023-02-07T20:45:15.246Z,15.05
2023-02-07T20:47:42.167Z,17.17
2023-02-07T20:50:09.230Z,15.35
2023-02-07T20:52:37.559Z,16.55
2023-02-07T20:55:08.444Z,17.05
2023-02-07T20:57:35.709Z,17.10
2023-02-07T21:00:03.517Z,17.70
2023-02-07T21:02:30.407Z,18.10
2023-02-07T21:05:00.155Z,18.45
2023-02-07T21:07:27.028Z,19.08
2023-02-07T21:09:54.159Z,17.83
2023-02-07T21:12:21.649Z,17.70
2023-02-07T21:14:48.457Z,17.52
2023-02-07T21:17:18.632Z,19.52
2023-02-07T21:19:45.582Z,20.88
2023-02-07T21:22:15.264Z,18.92
2023-02-07T21:24:44.126Z,17.08
2023-02-07T21:27:16.115Z,19.05
2023-02-07T21:29:42.947Z,20.45
2023-02-07T21:32:09.859Z,18.63
2023-02-07T21:34:36.655Z,17.05
2023-02-07T21:37:03.645Z,18.45
2023-02-07T21:39:32.425Z,16.80
2023-02-07T21:42:00.120Z,16.98
2023-02-07T21:44:26.942Z,17.65
2023-02-07T21:46:53.747Z,16.10
2023-02-07T21:49:21.019Z,15.57
2023-02-07T21:51:49.004Z,17.42
2023-02-07T21:54:16.014Z,18.58
2023-02-07T21:56:43.143Z,14.60
2023-02-07T21:59:15.095Z,18.23
2023-02-07T22:01:42.335Z,17.83
2023-02-07T22:04:12.255Z,17.13
2023-02-07T22:06:42.095Z,19.10
2023-02-07T22:09:10.396Z,18.08
2023-02-07T22:11:37.097Z,16.38
2023-02-07T22:14:04.023Z,17.92
2023-02-07T22:16:31.074Z,16.77
2023-02-07T22:18:58.991Z,17.02
2023-02-07T22:21:30.496Z,18.13
2023-02-07T22:23:57.484Z,17.67
2023-02-07T22:26:24.497Z,16.83
2023-02-07T22:28:51.465Z,14.73
2023-02-07T22:31:20.612Z,16.40
2023-02-07T22:33:47.802Z,18.20
2023-02-07T22:36:16.712Z,19.08
2023-02-07T22:38:43.437Z,16.33
2023-02-07T22:41:10.242Z,17.35
2023-02-07T22:43:37.170Z,17.38
2023-02-07T22:46:05.264Z,19.02
2023-02-07T22:48:32.222Z,19.50
2023-02-07T22:50:59.788Z,19.88
2023-02-07T22:53:27.391Z,19.55
2023-02-07T22:55:54.446Z,17.17
2023-02-07T22:58:21.221Z,18.00
2023-02-07T23:00:47.914Z,17.50
2023-02-07T23:03:17.402Z,18.20
2023-02-07T23:05:46.300Z,20.13
2023-02-07T23:08:13.074Z,17.45
2023-02-07T23:10:43.607Z,18.58
2023-02-07T23:13:10.840Z,17.65
2023-02-07T23:15:37.633Z,19.05
2023-02-07T23:18:04.547Z,17.92
2023-02-07T23:20:31.265Z,17.48
2023-02-07T23:22:57.937Z,18.33
2023-02-07T23:25:24.601Z,17.45
2023-02-07T23:27:51.397Z,15.65
2023-02-07T23:30:18.068Z,18.13
2023-02-07T23:32:44.781Z,16.65
2023-02-07T23:35:11.442Z,18.48
2023-02-07T23:37:38.133Z,18.85
2023-02-07T23:40:05.234Z,19.13
2023-02-07T23:42:31.938Z,16.58
2023-02-07T23:44:58.650Z,18.73
2023-02-07T23:47:25.358Z,17.40
2023-02-07T23:49:52.056Z,18.50
2023-02-07T23:52:18.764Z,19.38
2023-02-07T23:54:45.543Z,16.13
2023-02-07T23:57:12.291Z,17.35
2023-02-07T23:59:38.954Z,16.30
